sensor_id;sensor_type;location;lat;lon;timestamp;temperature;humidity
16158;DHT22;8184;60.256;18.694;2023-09-19T00:00:21;15.10;99.90
16158;DHT22;8184;60.256;18.694;2023-09-19T00:02:52;15.10;99.90
16158;DHT22;8184;60.256;18.694;2023-09-19T00:05:20;15.10;99.90
16158;DHT22;8184;60.256;18.694;2023-09-19T00:07:51;15.10;99.90
16158;DHT22;8184;60.256;18.694;2023-09-19T00:10:20;15.10;99.90
16158;DHT22;8184;60.256;18.694;2023-09-19T00:12:52;15.10;99.90
16158;DHT22;8184;60.256;18.694;2023-09-19T00:15:22;15.10;99.90
16158;DHT22;8184;60.256;18.694;2023-09-19T00:17:51;15.10;99.90
16158;DHT22;8184;60.256;18.694;2023-09-19T00:20:20;15.10;99.90
16158;DHT22;8184;60.256;18.694;2023-09-19T00:22:50;15.00;99.90
16158;DHT22;8184;60.256;18.694;2023-09-19T00:25:18;15.10;99.90
16158;DHT22;8184;60.256;18.694;2023-09-19T00:27:47;15.10;99.90
16158;DHT22;8184;60.256;18.694;2023-09-19T00:30:19;15.10;99.90
16158;DHT22;8184;60.256;18.694;2023-09-19T00:32:48;15.10;99.90
16158;DHT22;8184;60.256;18.694;2023-09-19T00:35:19;15.20;99.90
16158;DHT22;8184;60.256;18.694;2023-09-19T00:37:47;15.20;99.90
16158;DHT22;8184;60.256;18.694;2023-09-19T00:40:15;15.20;99.90
16158;DHT22;8184;60.256;18.694;2023-09-19T00:42:44;15.20;99.90
16158;DHT22;8184;60.256;18.694;2023-09-19T00:45:13;15.20;99.90
16158;DHT22;8184;60.256;18.694;2023-09-19T00:47:44;15.20;99.90
16158;DHT22;8184;60.256;18.694;2023-09-19T00:50:16;15.30;99.90
16158;DHT22;8184;60.256;18.694;2023-09-19T00:52:46;15.20;99.90
16158;DHT22;8184;60.256;18.694;2023-09-19T00:55:16;15.30;99.90
16158;DHT22;8184;60.256;18.694;2023-09-19T00:57:47;15.20;99.90
16158;DHT22;8184;60.256;18.694;2023-09-19T01:00:17;15.20;99.90
16158;DHT22;8184;60.256;18.694;2023-09-19T01:02:48;15.30;99.90
16158;DHT22;8184;60.256;18.694;2023-09-19T01:05:17;15.30;99.90
16158;DHT22;8184;60.256;18.694;2023-09-19T01:07:46;15.30;99.90
16158;DHT22;8184;60.256;18.694;2023-09-19T01:10:16;15.30;99.90
16158;DHT22;8184;60.256;18.694;2023-09-19T01:12:48;15.40;99.90
16158;DHT22;8184;60.256;18.694;2023-09-19T01:15:21;15.40;99.90
16158;DHT22;8184;60.256;18.694;2023-09-19T01:17:56;15.30;99.90
16158;DHT22;8184;60.256;18.694;2023-09-19T01:20:27;15.40;99.90
16158;DHT22;8184;60.256;18.694;2023-09-19T01:23:06;15.40;99.90
16158;DHT22;8184;60.256;18.694;2023-09-19T01:25:56;15.40;99.90
16158;DHT22;8184;60.256;18.694;2023-09-19T01:28:34;15.40;99.90
16158;DHT22;8184;60.256;18.694;2023-09-19T01:31:09;15.40;99.90
16158;DHT22;8184;60.256;18.694;2023-09-19T01:33:53;15.40;99.90
16158;DHT22;8184;60.256;18.694;2023-09-19T01:36:24;15.40;99.90
16158;DHT22;8184;60.256;18.694;2023-09-19T01:38:53;15.40;99.90
16158;DHT22;8184;60.256;18.694;2023-09-19T01:41:25;15.40;99.90
16158;DHT22;8184;60.256;18.694;2023-09-19T01:43:54;15.40;99.90
16158;DHT22;8184;60.256;18.694;2023-09-19T01:46:25;15.40;99.90
16158;DHT22;8184;60.256;18.694;2023-09-19T01:48:59;15.40;99.90
16158;DHT22;8184;60.256;18.694;2023-09-19T01:51:34;15.40;99.90
16158;DHT22;8184;60.256;18.694;2023-09-19T01:54:08;15.50;99.90
16158;DHT22;8184;60.256;18.694;2023-09-19T01:56:39;15.40;99.90
16158;DHT22;8184;60.256;18.694;2023-09-19T01:59:11;15.50;99.90
16158;DHT22;8184;60.256;18.694;2023-09-19T02:01:42;15.50;99.90
16158;DHT22;8184;60.256;18.694;2023-09-19T02:04:12;15.50;99.90
16158;DHT22;8184;60.256;18.694;2023-09-19T02:06:41;15.50;99.90
16158;DHT22;8184;60.256;18.694;2023-09-19T02:09:09;15.50;99.90
16158;DHT22;8184;60.256;18.694;2023-09-19T02:11:37;15.60;99.90
16158;DHT22;8184;60.256;18.694;2023-09-19T02:14:05;15.50;99.90
16158;DHT22;8184;60.256;18.694;2023-09-19T02:16:35;15.50;99.90
16158;DHT22;8184;60.256;18.694;2023-09-19T02:19:05;15.50;99.90
16158;DHT22;8184;60.256;18.694;2023-09-19T02:21:34;15.60;99.90
16158;DHT22;8184;60.256;18.694;2023-09-19T02:24:07;15.60;99.90
16158;DHT22;8184;60.256;18.694;2023-09-19T02:26:37;15.60;99.90
16158;DHT22;8184;60.256;18.694;2023-09-19T02:29:07;15.50;99.90
16158;DHT22;8184;60.256;18.694;2023-09-19T02:31:39;15.60;99.90
16158;DHT22;8184;60.256;18.694;2023-09-19T02:34:09;15.50;99.90
16158;DHT22;8184;60.256;18.694;2023-09-19T02:36:41;15.60;99.90
16158;DHT22;8184;60.256;18.694;2023-09-19T02:39:11;15.50;99.90
16158;DHT22;8184;60.256;18.694;2023-09-19T02:41:39;15.60;99.90
16158;DHT22;8184;60.256;18.694;2023-09-19T02:44:08;15.60;99.90
16158;DHT22;8184;60.256;18.694;2023-09-19T02:46:36;15.60;99.90
16158;DHT22;8184;60.256;18.694;2023-09-19T02:49:05;15.60;99.90
16158;DHT22;8184;60.256;18.694;2023-09-19T02:51:35;15.60;99.90
16158;DHT22;8184;60.256;18.694;2023-09-19T02:54:03;15.60;99.90
16158;DHT22;8184;60.256;18.694;2023-09-19T02:56:32;15.60;99.90
16158;DHT22;8184;60.256;18.694;2023-09-19T02:59:00;15.50;99.90
16158;DHT22;8184;60.256;18.694;2023-09-19T03:01:28;15.60;99.90
16158;DHT22;8184;60.256;18.694;2023-09-19T03:03:57;15.50;99.90
16158;DHT22;8184;60.256;18.694;2023-09-19T03:06:26;15.50;99.90
16158;DHT22;8184;60.256;18.694;2023-09-19T03:09:02;15.60;99.90
16158;DHT22;8184;60.256;18.694;2023-09-19T03:11:32;15.60;99.90
16158;DHT22;8184;60.256;18.694;2023-09-19T03:14:01;15.60;99.90
16158;DHT22;8184;60.256;18.694;2023-09-19T03:16:31;15.60;99.90
16158;DHT22;8184;60.256;18.694;2023-09-19T03:19:00;15.60;99.90
16158;DHT22;8184;60.256;18.694;2023-09-19T03:21:28;15.60;99.90
16158;DHT22;8184;60.256;18.694;2023-09-19T03:23:59;15.60;99.90
16158;DHT22;8184;60.256;18.694;2023-09-19T03:26:28;15.60;99.90
16158;DHT22;8184;60.256;18.694;2023-09-19T03:28:57;15.60;99.90
16158;DHT22;8184;60.256;18.694;2023-09-19T03:31:26;15.60;99.90
16158;DHT22;8184;60.256;18.694;2023-09-19T03:33:54;15.60;99.90
16158;DHT22;8184;60.256;18.694;2023-09-19T03:36:22;15.70;99.90
16158;DHT22;8184;60.256;18.694;2023-09-19T03:38:54;15.70;99.90
16158;DHT22;8184;60.256;18.694;2023-09-19T03:41:23;15.70;99.90
16158;DHT22;8184;60.256;18.694;2023-09-19T03:43:53;15.70;99.90
16158;DHT22;8184;60.256;18.694;2023-09-19T03:46:21;15.70;99.90
16158;DHT22;8184;60.256;18.694;2023-09-19T03:48:49;15.70;99.90
16158;DHT22;8184;60.256;18.694;2023-09-19T03:51:18;15.80;99.90
16158;DHT22;8184;60.256;18.694;2023-09-19T03:53:48;15.80;99.90
16158;DHT22;8184;60.256;18.694;2023-09-19T03:56:20;15.80;99.90
16158;DHT22;8184;60.256;18.694;2023-09-19T03:58:48;15.80;99.90
16158;DHT22;8184;60.256;18.694;2023-09-19T04:01:18;15.70;99.90
16158;DHT22;8184;60.256;18.694;2023-09-19T04:03:50;15.70;99.90
16158;DHT22;8184;60.256;18.694;2023-09-19T04:06:20;15.80;99.90
16158;DHT22;8184;60.256;18.694;2023-09-19T04:08:48;15.70;99.90
16158;DHT22;8184;60.256;18.694;2023-09-19T04:11:17;15.70;99.90
16158;DHT22;8184;60.256;18.694;2023-09-19T04:13:45;15.70;99.90
16158;DHT22;8184;60.256;18.694;2023-09-19T04:16:13;15.70;99.90
16158;DHT22;8184;60.256;18.694;2023-09-19T04:18:43;15.80;99.90
16158;DHT22;8184;60.256;18.694;2023-09-19T04:21:12;15.80;99.90
16158;DHT22;8184;60.256;18.694;2023-09-19T04:23:40;15.80;99.90
16158;DHT22;8184;60.256;18.694;2023-09-19T04:26:08;15.80;99.90
16158;DHT22;8184;60.256;18.694;2023-09-19T04:28:37;15.80;99.90
16158;DHT22;8184;60.256;18.694;2023-09-19T04:31:06;15.80;99.90
16158;DHT22;8184;60.256;18.694;2023-09-19T04:33:37;15.80;99.90
16158;DHT22;8184;60.256;18.694;2023-09-19T04:36:07;15.80;99.90
16158;DHT22;8184;60.256;18.694;2023-09-19T04:38:56;15.80;99.90
16158;DHT22;8184;60.256;18.694;2023-09-19T04:41:25;15.80;99.90
16158;DHT22;8184;60.256;18.694;2023-09-19T04:43:53;15.80;99.90
16158;DHT22;8184;60.256;18.694;2023-09-19T04:46:22;15.80;99.90
16158;DHT22;8184;60.256;18.694;2023-09-19T04:48:51;15.80;99.90
16158;DHT22;8184;60.256;18.694;2023-09-19T04:51:20;15.80;99.90
16158;DHT22;8184;60.256;18.694;2023-09-19T04:53:49;15.80;99.90
16158;DHT22;8184;60.256;18.694;2023-09-19T04:56:17;15.80;99.90
16158;DHT22;8184;60.256;18.694;2023-09-19T04:58:46;15.80;99.90
16158;DHT22;8184;60.256;18.694;2023-09-19T05:01:14;15.80;99.90
16158;DHT22;8184;60.256;18.694;2023-09-19T05:03:43;15.80;99.90
16158;DHT22;8184;60.256;18.694;2023-09-19T05:06:12;15.80;99.90
16158;DHT22;8184;60.256;18.694;2023-09-19T05:08:41;15.90;99.90
16158;DHT22;8184;60.256;18.694;2023-09-19T05:11:10;15.90;99.90
16158;DHT22;8184;60.256;18.694;2023-09-19T05:13:40;15.80;99.90
16158;DHT22;8184;60.256;18.694;2023-09-19T05:16:10;15.90;99.90
16158;DHT22;8184;60.256;18.694;2023-09-19T05:18:39;15.80;99.90
16158;DHT22;8184;60.256;18.694;2023-09-19T05:21:07;15.90;99.90
16158;DHT22;8184;60.256;18.694;2023-09-19T05:23:36;15.80;99.90
16158;DHT22;8184;60.256;18.694;2023-09-19T05:26:06;15.80;99.90
16158;DHT22;8184;60.256;18.694;2023-09-19T05:28:38;15.90;99.90
16158;DHT22;8184;60.256;18.694;2023-09-19T05:31:06;15.90;99.90
16158;DHT22;8184;60.256;18.694;2023-09-19T05:33:34;15.90;99.90
16158;DHT22;8184;60.256;18.694;2023-09-19T05:36:03;16.00;99.90
16158;DHT22;8184;60.256;18.694;2023-09-19T05:38:31;16.00;99.90
16158;DHT22;8184;60.256;18.694;2023-09-19T05:41:02;16.00;99.90
16158;DHT22;8184;60.256;18.694;2023-09-19T05:43:32;16.10;99.90
16158;DHT22;8184;60.256;18.694;2023-09-19T05:46:00;16.10;99.90
16158;DHT22;8184;60.256;18.694;2023-09-19T05:48:29;16.10;99.90
16158;DHT22;8184;60.256;18.694;2023-09-19T05:50:57;16.10;99.90
16158;DHT22;8184;60.256;18.694;2023-09-19T05:53:25;16.10;99.90
16158;DHT22;8184;60.256;18.694;2023-09-19T05:55:53;16.10;99.90
16158;DHT22;8184;60.256;18.694;2023-09-19T05:58:27;16.10;99.90
16158;DHT22;8184;60.256;18.694;2023-09-19T06:00:57;16.10;99.90
16158;DHT22;8184;60.256;18.694;2023-09-19T06:03:26;16.10;99.90
16158;DHT22;8184;60.256;18.694;2023-09-19T06:05:56;16.20;99.90
16158;DHT22;8184;60.256;18.694;2023-09-19T06:08:25;16.20;99.90
16158;DHT22;8184;60.256;18.694;2023-09-19T06:10:56;16.20;99.90
16158;DHT22;8184;60.256;18.694;2023-09-19T06:13:24;16.30;99.90
16158;DHT22;8184;60.256;18.694;2023-09-19T06:15:54;16.30;99.90
16158;DHT22;8184;60.256;18.694;2023-09-19T06:18:24;16.40;99.90
16158;DHT22;8184;60.256;18.694;2023-09-19T06:20:53;16.40;99.90
16158;DHT22;8184;60.256;18.694;2023-09-19T06:23:22;16.40;99.90
16158;DHT22;8184;60.256;18.694;2023-09-19T06:25:52;16.40;99.90
16158;DHT22;8184;60.256;18.694;2023-09-19T06:28:21;16.40;99.90
16158;DHT22;8184;60.256;18.694;2023-09-19T06:30:54;16.40;99.90
16158;DHT22;8184;60.256;18.694;2023-09-19T06:33:22;16.50;99.90
16158;DHT22;8184;60.256;18.694;2023-09-19T06:35:52;16.50;99.90
16158;DHT22;8184;60.256;18.694;2023-09-19T06:38:27;16.50;99.90
16158;DHT22;8184;60.256;18.694;2023-09-19T06:40:55;16.60;99.90
16158;DHT22;8184;60.256;18.694;2023-09-19T06:43:24;16.60;99.90
16158;DHT22;8184;60.256;18.694;2023-09-19T06:45:53;16.70;99.90
16158;DHT22;8184;60.256;18.694;2023-09-19T06:48:22;16.70;99.90
16158;DHT22;8184;60.256;18.694;2023-09-19T06:50:54;16.70;99.90
16158;DHT22;8184;60.256;18.694;2023-09-19T06:53:22;16.80;99.90
16158;DHT22;8184;60.256;18.694;2023-09-19T06:55:51;16.80;99.90
16158;DHT22;8184;60.256;18.694;2023-09-19T06:58:20;16.70;99.90
16158;DHT22;8184;60.256;18.694;2023-09-19T07:00:48;16.80;99.90
16158;DHT22;8184;60.256;18.694;2023-09-19T07:03:17;16.80;99.90
16158;DHT22;8184;60.256;18.694;2023-09-19T07:05:48;16.90;99.90
16158;DHT22;8184;60.256;18.694;2023-09-19T07:08:18;16.90;99.90
16158;DHT22;8184;60.256;18.694;2023-09-19T07:10:47;17.00;99.90
16158;DHT22;8184;60.256;18.694;2023-09-19T07:13:16;17.00;99.90
16158;DHT22;8184;60.256;18.694;2023-09-19T07:15:47;16.90;99.90
16158;DHT22;8184;60.256;18.694;2023-09-19T07:18:17;16.90;99.90
16158;DHT22;8184;60.256;18.694;2023-09-19T07:20:47;16.90;99.90
16158;DHT22;8184;60.256;18.694;2023-09-19T07:23:19;16.90;99.90
16158;DHT22;8184;60.256;18.694;2023-09-19T07:25:51;17.00;99.90
16158;DHT22;8184;60.256;18.694;2023-09-19T07:28:19;17.00;99.90
16158;DHT22;8184;60.256;18.694;2023-09-19T07:30:48;17.10;99.90
16158;DHT22;8184;60.256;18.694;2023-09-19T07:33:16;17.10;99.90
16158;DHT22;8184;60.256;18.694;2023-09-19T07:35:45;17.10;99.90
16158;DHT22;8184;60.256;18.694;2023-09-19T07:38:14;17.10;99.90
16158;DHT22;8184;60.256;18.694;2023-09-19T07:40:44;17.00;99.90
16158;DHT22;8184;60.256;18.694;2023-09-19T07:43:15;17.00;99.90
16158;DHT22;8184;60.256;18.694;2023-09-19T07:45:44;17.00;99.90
16158;DHT22;8184;60.256;18.694;2023-09-19T07:48:14;17.00;99.90
16158;DHT22;8184;60.256;18.694;2023-09-19T07:50:42;17.00;99.90
16158;DHT22;8184;60.256;18.694;2023-09-19T07:53:11;17.10;99.90
16158;DHT22;8184;60.256;18.694;2023-09-19T07:55:41;17.10;99.90
16158;DHT22;8184;60.256;18.694;2023-09-19T07:58:11;17.10;99.90
16158;DHT22;8184;60.256;18.694;2023-09-19T08:00:40;17.10;99.90
16158;DHT22;8184;60.256;18.694;2023-09-19T08:03:08;17.10;99.90
16158;DHT22;8184;60.256;18.694;2023-09-19T08:05:43;17.00;99.90
16158;DHT22;8184;60.256;18.694;2023-09-19T08:08:13;17.00;99.90
16158;DHT22;8184;60.256;18.694;2023-09-19T08:10:42;17.10;99.90
16158;DHT22;8184;60.256;18.694;2023-09-19T08:13:15;17.00;99.90
16158;DHT22;8184;60.256;18.694;2023-09-19T08:15:45;17.00;99.90
16158;DHT22;8184;60.256;18.694;2023-09-19T08:18:13;17.00;99.90
16158;DHT22;8184;60.256;18.694;2023-09-19T08:20:43;17.10;99.90
16158;DHT22;8184;60.256;18.694;2023-09-19T08:23:13;17.20;99.90
16158;DHT22;8184;60.256;18.694;2023-09-19T08:25:41;17.20;99.90
16158;DHT22;8184;60.256;18.694;2023-09-19T08:28:10;17.10;99.90
16158;DHT22;8184;60.256;18.694;2023-09-19T08:30:46;17.10;99.90
16158;DHT22;8184;60.256;18.694;2023-09-19T08:33:14;17.10;99.90
16158;DHT22;8184;60.256;18.694;2023-09-19T08:35:45;17.20;99.90
16158;DHT22;8184;60.256;18.694;2023-09-19T08:38:14;17.10;99.90
16158;DHT22;8184;60.256;18.694;2023-09-19T08:40:47;17.10;99.90
16158;DHT22;8184;60.256;18.694;2023-09-19T08:43:15;17.10;99.90
16158;DHT22;8184;60.256;18.694;2023-09-19T08:45:44;17.10;99.90
16158;DHT22;8184;60.256;18.694;2023-09-19T08:48:19;17.10;99.90
16158;DHT22;8184;60.256;18.694;2023-09-19T08:50:51;17.10;99.90
16158;DHT22;8184;60.256;18.694;2023-09-19T08:53:21;17.10;99.90
16158;DHT22;8184;60.256;18.694;2023-09-19T08:55:52;17.10;99.90
16158;DHT22;8184;60.256;18.694;2023-09-19T08:58:34;17.10;99.90
16158;DHT22;8184;60.256;18.694;2023-09-19T09:01:07;17.10;99.90
16158;DHT22;8184;60.256;18.694;2023-09-19T09:03:40;17.10;99.90
16158;DHT22;8184;60.256;18.694;2023-09-19T09:06:15;17.10;99.90
16158;DHT22;8184;60.256;18.694;2023-09-19T09:08:45;17.10;99.90
16158;DHT22;8184;60.256;18.694;2023-09-19T09:11:14;17.20;99.90
16158;DHT22;8184;60.256;18.694;2023-09-19T09:13:44;17.20;99.90
16158;DHT22;8184;60.256;18.694;2023-09-19T09:16:13;17.30;99.90
16158;DHT22;8184;60.256;18.694;2023-09-19T09:18:48;17.30;99.90
16158;DHT22;8184;60.256;18.694;2023-09-19T09:21:20;17.40;99.90
16158;DHT22;8184;60.256;18.694;2023-09-19T09:23:49;17.40;99.90
16158;DHT22;8184;60.256;18.694;2023-09-19T09:26:21;17.40;99.90
16158;DHT22;8184;60.256;18.694;2023-09-19T09:29:08;17.40;99.90
16158;DHT22;8184;60.256;18.694;2023-09-19T09:31:37;17.40;99.90
16158;DHT22;8184;60.256;18.694;2023-09-19T09:34:12;17.40;99.90
16158;DHT22;8184;60.256;18.694;2023-09-19T09:36:41;17.40;99.90
16158;DHT22;8184;60.256;18.694;2023-09-19T09:39:10;17.50;99.90
16158;DHT22;8184;60.256;18.694;2023-09-19T09:41:51;17.40;99.90
16158;DHT22;8184;60.256;18.694;2023-09-19T09:44:20;17.50;99.90
16158;DHT22;8184;60.256;18.694;2023-09-19T09:46:48;17.60;99.90
16158;DHT22;8184;60.256;18.694;2023-09-19T09:49:37;17.60;99.90
16158;DHT22;8184;60.256;18.694;2023-09-19T09:52:06;17.60;99.90
16158;DHT22;8184;60.256;18.694;2023-09-19T09:54:57;17.70;99.90
16158;DHT22;8184;60.256;18.694;2023-09-19T09:57:28;17.70;99.90
16158;DHT22;8184;60.256;18.694;2023-09-19T09:59:58;17.70;99.90
16158;DHT22;8184;60.256;18.694;2023-09-19T10:02:43;17.70;99.90
16158;DHT22;8184;60.256;18.694;2023-09-19T10:05:16;17.80;99.90
16158;DHT22;8184;60.256;18.694;2023-09-19T10:07:55;17.90;99.90
16158;DHT22;8184;60.256;18.694;2023-09-19T10:10:31;18.10;99.90
16158;DHT22;8184;60.256;18.694;2023-09-19T10:13:11;18.20;99.90
16158;DHT22;8184;60.256;18.694;2023-09-19T10:15:43;18.30;99.90
16158;DHT22;8184;60.256;18.694;2023-09-19T10:18:16;18.30;99.90
16158;DHT22;8184;60.256;18.694;2023-09-19T10:20:47;18.40;99.90
16158;DHT22;8184;60.256;18.694;2023-09-19T10:23:16;18.50;99.90
16158;DHT22;8184;60.256;18.694;2023-09-19T10:25:49;18.60;99.90
16158;DHT22;8184;60.256;18.694;2023-09-19T10:28:19;18.70;99.90
16158;DHT22;8184;60.256;18.694;2023-09-19T10:30:50;19.00;99.90
16158;DHT22;8184;60.256;18.694;2023-09-19T10:33:20;19.10;99.90
16158;DHT22;8184;60.256;18.694;2023-09-19T10:35:50;19.10;99.90
16158;DHT22;8184;60.256;18.694;2023-09-19T10:38:19;19.00;99.90
16158;DHT22;8184;60.256;18.694;2023-09-19T10:40:48;18.80;99.90
16158;DHT22;8184;60.256;18.694;2023-09-19T10:43:18;18.90;99.90
16158;DHT22;8184;60.256;18.694;2023-09-19T10:45:50;18.80;99.90
16158;DHT22;8184;60.256;18.694;2023-09-19T10:48:20;18.70;99.90
16158;DHT22;8184;60.256;18.694;2023-09-19T10:50:57;18.80;99.90
16158;DHT22;8184;60.256;18.694;2023-09-19T10:53:27;18.80;99.90
16158;DHT22;8184;60.256;18.694;2023-09-19T10:55:58;18.80;99.90
16158;DHT22;8184;60.256;18.694;2023-09-19T10:58:27;18.80;99.90
16158;DHT22;8184;60.256;18.694;2023-09-19T11:00:57;18.90;99.90
16158;DHT22;8184;60.256;18.694;2023-09-19T11:03:32;19.00;99.90
16158;DHT22;8184;60.256;18.694;2023-09-19T11:06:09;19.10;99.90
16158;DHT22;8184;60.256;18.694;2023-09-19T11:08:52;19.00;99.90
16158;DHT22;8184;60.256;18.694;2023-09-19T11:11:39;19.10;99.90
16158;DHT22;8184;60.256;18.694;2023-09-19T11:14:14;19.10;99.90
16158;DHT22;8184;60.256;18.694;2023-09-19T11:22:13;19.10;99.90
16158;DHT22;8184;60.256;18.694;2023-09-19T11:24:41;19.20;99.90
16158;DHT22;8184;60.256;18.694;2023-09-19T11:27:13;19.30;99.90
16158;DHT22;8184;60.256;18.694;2023-09-19T11:29:41;19.40;99.90
16158;DHT22;8184;60.256;18.694;2023-09-19T11:32:09;19.40;99.90
16158;DHT22;8184;60.256;18.694;2023-09-19T11:34:41;19.60;99.90
16158;DHT22;8184;60.256;18.694;2023-09-19T11:40:07;19.50;99.90
16158;DHT22;8184;60.256;18.694;2023-09-19T11:42:42;19.50;99.90
16158;DHT22;8184;60.256;18.694;2023-09-19T11:47:57;20.00;99.90
16158;DHT22;8184;60.256;18.694;2023-09-19T11:50:26;20.10;99.90
16158;DHT22;8184;60.256;18.694;2023-09-19T11:52:55;20.30;99.90
16158;DHT22;8184;60.256;18.694;2023-09-19T11:55:25;20.10;99.90
16158;DHT22;8184;60.256;18.694;2023-09-19T11:57:57;19.90;99.90
16158;DHT22;8184;60.256;18.694;2023-09-19T12:00:26;19.80;99.90
16158;DHT22;8184;60.256;18.694;2023-09-19T12:02:55;19.80;99.90
16158;DHT22;8184;60.256;18.694;2023-09-19T12:05:30;19.80;99.90
16158;DHT22;8184;60.256;18.694;2023-09-19T12:08:00;19.90;99.90
16158;DHT22;8184;60.256;18.694;2023-09-19T12:10:35;20.10;99.90
16158;DHT22;8184;60.256;18.694;2023-09-19T12:13:15;19.90;99.90
16158;DHT22;8184;60.256;18.694;2023-09-19T12:15:43;19.90;99.90
16158;DHT22;8184;60.256;18.694;2023-09-19T12:18:26;19.70;99.90
16158;DHT22;8184;60.256;18.694;2023-09-19T12:20:55;19.60;99.90
16158;DHT22;8184;60.256;18.694;2023-09-19T12:23:24;19.60;99.90
16158;DHT22;8184;60.256;18.694;2023-09-19T12:25:55;19.60;99.90
16158;DHT22;8184;60.256;18.694;2023-09-19T12:28:26;19.60;99.90
16158;DHT22;8184;60.256;18.694;2023-09-19T12:31:05;19.50;99.90
16158;DHT22;8184;60.256;18.694;2023-09-19T12:33:35;19.50;99.90
16158;DHT22;8184;60.256;18.694;2023-09-19T12:36:19;19.50;99.90
16158;DHT22;8184;60.256;18.694;2023-09-19T12:38:52;19.40;99.90
16158;DHT22;8184;60.256;18.694;2023-09-19T12:41:25;19.70;99.90
16158;DHT22;8184;60.256;18.694;2023-09-19T12:43:53;19.90;99.90
16158;DHT22;8184;60.256;18.694;2023-09-19T12:46:22;20.00;99.90
16158;DHT22;8184;60.256;18.694;2023-09-19T12:51:37;20.00;99.90
16158;DHT22;8184;60.256;18.694;2023-09-19T12:54:06;19.90;99.90
16158;DHT22;8184;60.256;18.694;2023-09-19T12:56:40;19.90;99.90
16158;DHT22;8184;60.256;18.694;2023-09-19T12:59:12;20.10;99.90
16158;DHT22;8184;60.256;18.694;2023-09-19T13:01:41;20.20;99.90
16158;DHT22;8184;60.256;18.694;2023-09-19T13:04:13;20.00;99.90
16158;DHT22;8184;60.256;18.694;2023-09-19T13:06:46;20.10;99.90
16158;DHT22;8184;60.256;18.694;2023-09-19T13:09:16;20.30;99.90
16158;DHT22;8184;60.256;18.694;2023-09-19T13:11:46;20.10;99.90
16158;DHT22;8184;60.256;18.694;2023-09-19T13:14:17;19.80;99.90
16158;DHT22;8184;60.256;18.694;2023-09-19T13:16:53;19.80;99.90
16158;DHT22;8184;60.256;18.694;2023-09-19T13:19:36;19.90;99.90
16158;DHT22;8184;60.256;18.694;2023-09-19T13:24:50;19.80;99.90
16158;DHT22;8184;60.256;18.694;2023-09-19T13:27:21;19.80;99.90
16158;DHT22;8184;60.256;18.694;2023-09-19T13:29:49;19.90;99.90
16158;DHT22;8184;60.256;18.694;2023-09-19T13:32:17;19.80;99.90
16158;DHT22;8184;60.256;18.694;2023-09-19T13:34:45;19.70;99.90
16158;DHT22;8184;60.256;18.694;2023-09-19T13:37:14;19.70;99.90
16158;DHT22;8184;60.256;18.694;2023-09-19T13:39:44;19.70;99.90
16158;DHT22;8184;60.256;18.694;2023-09-19T13:42:14;19.70;99.90
16158;DHT22;8184;60.256;18.694;2023-09-19T13:44:44;19.60;99.90
16158;DHT22;8184;60.256;18.694;2023-09-19T13:47:13;19.30;99.90
16158;DHT22;8184;60.256;18.694;2023-09-19T13:49:43;19.10;99.90
16158;DHT22;8184;60.256;18.694;2023-09-19T13:52:11;19.10;99.90
16158;DHT22;8184;60.256;18.694;2023-09-19T13:54:39;18.90;99.90
16158;DHT22;8184;60.256;18.694;2023-09-19T13:57:08;18.80;99.90
16158;DHT22;8184;60.256;18.694;2023-09-19T13:59:37;18.70;99.90
16158;DHT22;8184;60.256;18.694;2023-09-19T14:02:06;18.70;99.90
16158;DHT22;8184;60.256;18.694;2023-09-19T14:04:35;18.60;99.90
16158;DHT22;8184;60.256;18.694;2023-09-19T14:07:03;18.70;99.90
16158;DHT22;8184;60.256;18.694;2023-09-19T14:09:34;18.70;99.90
16158;DHT22;8184;60.256;18.694;2023-09-19T14:12:03;18.60;99.90
16158;DHT22;8184;60.256;18.694;2023-09-19T14:14:31;18.60;99.90
16158;DHT22;8184;60.256;18.694;2023-09-19T14:16:59;18.50;99.90
16158;DHT22;8184;60.256;18.694;2023-09-19T14:19:30;18.50;99.90
16158;DHT22;8184;60.256;18.694;2023-09-19T14:21:59;18.50;99.90
16158;DHT22;8184;60.256;18.694;2023-09-19T14:24:34;18.40;99.90
16158;DHT22;8184;60.256;18.694;2023-09-19T14:27:03;18.30;99.90
16158;DHT22;8184;60.256;18.694;2023-09-19T14:29:33;18.30;99.90
16158;DHT22;8184;60.256;18.694;2023-09-19T14:32:02;18.10;99.90
16158;DHT22;8184;60.256;18.694;2023-09-19T14:34:32;18.10;99.90
16158;DHT22;8184;60.256;18.694;2023-09-19T14:37:00;18.00;99.90
16158;DHT22;8184;60.256;18.694;2023-09-19T14:39:30;18.00;99.90
16158;DHT22;8184;60.256;18.694;2023-09-19T14:41:59;17.80;99.90
16158;DHT22;8184;60.256;18.694;2023-09-19T14:44:27;17.80;99.90
16158;DHT22;8184;60.256;18.694;2023-09-19T14:46:56;17.80;99.90
16158;DHT22;8184;60.256;18.694;2023-09-19T14:49:24;17.70;99.90
16158;DHT22;8184;60.256;18.694;2023-09-19T14:51:54;17.70;99.90
16158;DHT22;8184;60.256;18.694;2023-09-19T14:54:22;17.60;99.90
16158;DHT22;8184;60.256;18.694;2023-09-19T14:56:51;17.70;99.90
16158;DHT22;8184;60.256;18.694;2023-09-19T14:59:33;17.60;99.90
16158;DHT22;8184;60.256;18.694;2023-09-19T15:02:03;17.60;99.90
16158;DHT22;8184;60.256;18.694;2023-09-19T15:04:32;17.50;99.90
16158;DHT22;8184;60.256;18.694;2023-09-19T15:07:03;17.40;99.90
16158;DHT22;8184;60.256;18.694;2023-09-19T15:09:31;17.30;99.90
16158;DHT22;8184;60.256;18.694;2023-09-19T15:12:00;17.10;99.90
16158;DHT22;8184;60.256;18.694;2023-09-19T15:14:29;16.90;99.90
16158;DHT22;8184;60.256;18.694;2023-09-19T15:16:57;16.90;99.90
16158;DHT22;8184;60.256;18.694;2023-09-19T15:19:26;16.60;99.90
16158;DHT22;8184;60.256;18.694;2023-09-19T15:21:54;16.40;99.90
16158;DHT22;8184;60.256;18.694;2023-09-19T15:24:24;16.20;99.90
16158;DHT22;8184;60.256;18.694;2023-09-19T15:26:53;16.10;99.90
16158;DHT22;8184;60.256;18.694;2023-09-19T15:29:25;15.90;99.90
16158;DHT22;8184;60.256;18.694;2023-09-19T15:31:54;15.60;99.90
16158;DHT22;8184;60.256;18.694;2023-09-19T15:34:25;15.40;99.90
16158;DHT22;8184;60.256;18.694;2023-09-19T15:36:55;15.40;99.90
16158;DHT22;8184;60.256;18.694;2023-09-19T15:39:26;15.20;99.90
16158;DHT22;8184;60.256;18.694;2023-09-19T15:42:00;15.40;99.90
16158;DHT22;8184;60.256;18.694;2023-09-19T15:44:29;15.30;99.90
16158;DHT22;8184;60.256;18.694;2023-09-19T15:47:00;15.30;99.90
16158;DHT22;8184;60.256;18.694;2023-09-19T15:49:28;15.40;99.90
16158;DHT22;8184;60.256;18.694;2023-09-19T15:51:57;15.50;99.90
16158;DHT22;8184;60.256;18.694;2023-09-19T15:54:26;15.60;99.90
16158;DHT22;8184;60.256;18.694;2023-09-19T15:56:56;15.50;99.90
16158;DHT22;8184;60.256;18.694;2023-09-19T15:59:24;15.50;99.90
16158;DHT22;8184;60.256;18.694;2023-09-19T16:01:53;15.30;99.90
16158;DHT22;8184;60.256;18.694;2023-09-19T16:04:21;15.30;99.90
16158;DHT22;8184;60.256;18.694;2023-09-19T16:06:49;15.20;99.90